sensor_id;sensor_type;location;lat;lon;timestamp;P1;durP1;ratioP1;P2;durP2;ratioP2
71236;SDS011;58984;51.960;5.582;2022-12-18T00:03:54;70.10;;;31.30;;
71236;SDS011;58984;51.960;5.582;2022-12-18T00:06:20;55.33;;;31.25;;
71236;SDS011;58984;51.960;5.582;2022-12-18T00:08:47;62.45;;;33.05;;
71236;SDS011;58984;51.960;5.582;2022-12-18T00:11:13;58.28;;;31.48;;
71236;SDS011;58984;51.960;5.582;2022-12-18T00:13:40;63.05;;;30.92;;
71236;SDS011;58984;51.960;5.582;2022-12-18T00:16:07;66.00;;;33.25;;
71236;SDS011;58984;51.960;5.582;2022-12-18T00:18:34;52.72;;;30.75;;
71236;SDS011;58984;51.960;5.582;2022-12-18T00:21:05;59.85;;;31.20;;
71236;SDS011;58984;51.960;5.582;2022-12-18T00:23:32;54.53;;;30.70;;
71236;SDS011;58984;51.960;5.582;2022-12-18T00:25:59;64.40;;;30.77;;
71236;SDS011;58984;51.960;5.582;2022-12-18T00:28:29;58.13;;;30.35;;
71236;SDS011;58984;51.960;5.582;2022-12-18T00:31:01;58.88;;;30.90;;
71236;SDS011;58984;51.960;5.582;2022-12-18T00:33:28;64.68;;;31.88;;
71236;SDS011;58984;51.960;5.582;2022-12-18T00:35:53;61.40;;;31.52;;
71236;SDS011;58984;51.960;5.582;2022-12-18T00:38:19;66.40;;;32.63;;
71236;SDS011;58984;51.960;5.582;2022-12-18T00:40:44;60.72;;;32.70;;
71236;SDS011;58984;51.960;5.582;2022-12-18T00:43:10;71.78;;;34.40;;
71236;SDS011;58984;51.960;5.582;2022-12-18T00:45:35;65.70;;;33.75;;
71236;SDS011;58984;51.960;5.582;2022-12-18T00:48:01;61.13;;;35.20;;
71236;SDS011;58984;51.960;5.582;2022-12-18T00:50:26;64.07;;;33.30;;
71236;SDS011;58984;51.960;5.582;2022-12-18T00:52:52;67.38;;;34.10;;
71236;SDS011;58984;51.960;5.582;2022-12-18T00:55:18;79.80;;;35.03;;
71236;SDS011;58984;51.960;5.582;2022-12-18T00:57:43;64.22;;;33.60;;
71236;SDS011;58984;51.960;5.582;2022-12-18T01:00:10;68.30;;;35.17;;
71236;SDS011;58984;51.960;5.582;2022-12-18T01:02:38;70.53;;;34.40;;
71236;SDS011;58984;51.960;5.582;2022-12-18T01:05:03;69.00;;;33.50;;
71236;SDS011;58984;51.960;5.582;2022-12-18T01:07:29;65.78;;;33.10;;
71236;SDS011;58984;51.960;5.582;2022-12-18T01:09:55;62.03;;;34.00;;
71236;SDS011;58984;51.960;5.582;2022-12-18T01:12:21;58.17;;;32.47;;
71236;SDS011;58984;51.960;5.582;2022-12-18T01:14:46;61.17;;;33.60;;
71236;SDS011;58984;51.960;5.582;2022-12-18T01:17:12;64.10;;;33.00;;
71236;SDS011;58984;51.960;5.582;2022-12-18T01:19:37;62.10;;;34.47;;
71236;SDS011;58984;51.960;5.582;2022-12-18T01:22:03;50.40;;;31.88;;
71236;SDS011;58984;51.960;5.582;2022-12-18T01:24:28;63.47;;;33.72;;
71236;SDS011;58984;51.960;5.582;2022-12-18T01:26:54;70.25;;;33.15;;
71236;SDS011;58984;51.960;5.582;2022-12-18T01:29:19;55.80;;;30.38;;
71236;SDS011;58984;51.960;5.582;2022-12-18T01:31:45;61.40;;;30.95;;
71236;SDS011;58984;51.960;5.582;2022-12-18T01:34:11;57.92;;;32.20;;
71236;SDS011;58984;51.960;5.582;2022-12-18T01:36:37;57.47;;;30.40;;
71236;SDS011;58984;51.960;5.582;2022-12-18T01:39:11;60.65;;;30.20;;
71236;SDS011;58984;51.960;5.582;2022-12-18T01:41:38;56.05;;;28.73;;
71236;SDS011;58984;51.960;5.582;2022-12-18T01:50:29;59.70;;;30.52;;
71236;SDS011;58984;51.960;5.582;2022-12-18T01:53:03;50.85;;;29.98;;
71236;SDS011;58984;51.960;5.582;2022-12-18T01:55:35;49.92;;;30.27;;
71236;SDS011;58984;51.960;5.582;2022-12-18T01:58:04;56.75;;;29.73;;
71236;SDS011;58984;51.960;5.582;2022-12-18T02:00:29;54.08;;;29.63;;
71236;SDS011;58984;51.960;5.582;2022-12-18T02:02:55;50.28;;;29.23;;
71236;SDS011;58984;51.960;5.582;2022-12-18T02:05:40;47.53;;;29.98;;
71236;SDS011;58984;51.960;5.582;2022-12-18T02:11:10;51.08;;;29.95;;
71236;SDS011;58984;51.960;5.582;2022-12-18T02:16:41;53.90;;;29.23;;
71236;SDS011;58984;51.960;5.582;2022-12-18T02:19:15;48.60;;;27.92;;
71236;SDS011;58984;51.960;5.582;2022-12-18T02:24:28;47.55;;;27.35;;
71236;SDS011;58984;51.960;5.582;2022-12-18T02:27:15;51.05;;;26.80;;
71236;SDS011;58984;51.960;5.582;2022-12-18T02:29:46;46.45;;;25.90;;
71236;SDS011;58984;51.960;5.582;2022-12-18T02:32:17;52.55;;;26.85;;
71236;SDS011;58984;51.960;5.582;2022-12-18T02:34:49;40.90;;;26.65;;
71236;SDS011;58984;51.960;5.582;2022-12-18T02:37:17;46.58;;;25.45;;
71236;SDS011;58984;51.960;5.582;2022-12-18T02:39:44;46.40;;;25.88;;
71236;SDS011;58984;51.960;5.582;2022-12-18T02:42:12;47.13;;;26.05;;
71236;SDS011;58984;51.960;5.582;2022-12-18T02:44:45;39.53;;;24.42;;
71236;SDS011;58984;51.960;5.582;2022-12-18T02:47:17;36.90;;;24.13;;
71236;SDS011;58984;51.960;5.582;2022-12-18T02:57:54;44.08;;;24.00;;
71236;SDS011;58984;51.960;5.582;2022-12-18T03:00:24;40.33;;;23.90;;
71236;SDS011;58984;51.960;5.582;2022-12-18T03:05:52;36.08;;;23.60;;
71236;SDS011;58984;51.960;5.582;2022-12-18T03:08:22;41.70;;;23.73;;
71236;SDS011;58984;51.960;5.582;2022-12-18T03:13:46;44.42;;;23.30;;
71236;SDS011;58984;51.960;5.582;2022-12-18T03:16:25;41.70;;;24.73;;
71236;SDS011;58984;51.960;5.582;2022-12-18T03:19:03;40.75;;;21.73;;
71236;SDS011;58984;51.960;5.582;2022-12-18T03:21:54;36.38;;;21.35;;
71236;SDS011;58984;51.960;5.582;2022-12-18T03:24:20;40.97;;;23.30;;
71236;SDS011;58984;51.960;5.582;2022-12-18T03:26:48;44.17;;;22.80;;
71236;SDS011;58984;51.960;5.582;2022-12-18T03:29:19;38.88;;;23.38;;
71236;SDS011;58984;51.960;5.582;2022-12-18T03:31:54;41.90;;;22.88;;
71236;SDS011;58984;51.960;5.582;2022-12-18T03:34:32;38.65;;;22.55;;
71236;SDS011;58984;51.960;5.582;2022-12-18T03:37:00;34.45;;;21.42;;
71236;SDS011;58984;51.960;5.582;2022-12-18T03:39:26;36.13;;;20.95;;
71236;SDS011;58984;51.960;5.582;2022-12-18T03:41:55;38.22;;;21.58;;
71236;SDS011;58984;51.960;5.582;2022-12-18T03:44:57;39.10;;;20.85;;
71236;SDS011;58984;51.960;5.582;2022-12-18T03:47:55;36.58;;;21.67;;
71236;SDS011;58984;51.960;5.582;2022-12-18T03:50:44;40.30;;;22.00;;
71236;SDS011;58984;51.960;5.582;2022-12-18T03:53:23;36.42;;;20.85;;
71236;SDS011;58984;51.960;5.582;2022-12-18T03:56:00;34.88;;;21.60;;
71236;SDS011;58984;51.960;5.582;2022-12-18T03:58:26;34.22;;;20.35;;
71236;SDS011;58984;51.960;5.582;2022-12-18T04:00:55;34.75;;;21.75;;
71236;SDS011;58984;51.960;5.582;2022-12-18T04:03:24;35.53;;;20.58;;
71236;SDS011;58984;51.960;5.582;2022-12-18T04:05:51;32.45;;;19.27;;
71236;SDS011;58984;51.960;5.582;2022-12-18T04:08:19;37.08;;;21.15;;
71236;SDS011;58984;51.960;5.582;2022-12-18T04:10:45;36.75;;;20.40;;
71236;SDS011;58984;51.960;5.582;2022-12-18T04:13:11;31.90;;;19.20;;
71236;SDS011;58984;51.960;5.582;2022-12-18T04:15:36;35.17;;;19.35;;
71236;SDS011;58984;51.960;5.582;2022-12-18T04:18:03;30.33;;;20.27;;
71236;SDS011;58984;51.960;5.582;2022-12-18T04:20:29;34.63;;;21.10;;
71236;SDS011;58984;51.960;5.582;2022-12-18T04:22:55;31.40;;;18.88;;
71236;SDS011;58984;51.960;5.582;2022-12-18T04:25:20;31.17;;;19.17;;
71236;SDS011;58984;51.960;5.582;2022-12-18T04:27:46;31.45;;;19.20;;
71236;SDS011;58984;51.960;5.582;2022-12-18T04:30:11;29.67;;;19.50;;
71236;SDS011;58984;51.960;5.582;2022-12-18T04:32:37;31.75;;;18.05;;
71236;SDS011;58984;51.960;5.582;2022-12-18T04:35:03;29.90;;;19.25;;
71236;SDS011;58984;51.960;5.582;2022-12-18T04:37:31;32.92;;;18.48;;
71236;SDS011;58984;51.960;5.582;2022-12-18T04:39:56;28.27;;;18.67;;
71236;SDS011;58984;51.960;5.582;2022-12-18T04:42:22;34.15;;;19.30;;
71236;SDS011;58984;51.960;5.582;2022-12-18T04:44:48;26.90;;;16.83;;
71236;SDS011;58984;51.960;5.582;2022-12-18T04:47:13;30.75;;;18.48;;
71236;SDS011;58984;51.960;5.582;2022-12-18T04:49:39;33.65;;;18.00;;
71236;SDS011;58984;51.960;5.582;2022-12-18T04:52:04;29.33;;;17.45;;
71236;SDS011;58984;51.960;5.582;2022-12-18T04:54:30;24.10;;;17.10;;
71236;SDS011;58984;51.960;5.582;2022-12-18T04:56:55;30.30;;;17.20;;
71236;SDS011;58984;51.960;5.582;2022-12-18T04:59:21;29.02;;;17.48;;
71236;SDS011;58984;51.960;5.582;2022-12-18T05:01:46;31.67;;;19.00;;
71236;SDS011;58984;51.960;5.582;2022-12-18T05:04:12;30.42;;;18.05;;
71236;SDS011;58984;51.960;5.582;2022-12-18T05:06:38;31.38;;;18.02;;
71236;SDS011;58984;51.960;5.582;2022-12-18T05:09:03;29.40;;;17.67;;
71236;SDS011;58984;51.960;5.582;2022-12-18T05:11:29;27.83;;;17.30;;
71236;SDS011;58984;51.960;5.582;2022-12-18T05:13:54;33.35;;;18.42;;
71236;SDS011;58984;51.960;5.582;2022-12-18T05:16:20;25.48;;;17.05;;
71236;SDS011;58984;51.960;5.582;2022-12-18T05:18:45;31.10;;;17.63;;
71236;SDS011;58984;51.960;5.582;2022-12-18T05:21:11;33.83;;;16.88;;
71236;SDS011;58984;51.960;5.582;2022-12-18T05:23:36;30.73;;;16.30;;
71236;SDS011;58984;51.960;5.582;2022-12-18T05:26:03;26.08;;;16.55;;
71236;SDS011;58984;51.960;5.582;2022-12-18T05:28:30;27.33;;;16.95;;
71236;SDS011;58984;51.960;5.582;2022-12-18T05:30:57;23.92;;;15.90;;
71236;SDS011;58984;51.960;5.582;2022-12-18T05:33:25;26.40;;;17.05;;
71236;SDS011;58984;51.960;5.582;2022-12-18T05:35:56;26.77;;;16.63;;
71236;SDS011;58984;51.960;5.582;2022-12-18T05:38:23;29.73;;;16.42;;
71236;SDS011;58984;51.960;5.582;2022-12-18T05:40:50;32.35;;;17.00;;
71236;SDS011;58984;51.960;5.582;2022-12-18T05:43:16;23.88;;;17.17;;
71236;SDS011;58984;51.960;5.582;2022-12-18T05:45:42;27.70;;;17.13;;
71236;SDS011;58984;51.960;5.582;2022-12-18T05:48:08;26.00;;;17.08;;
71236;SDS011;58984;51.960;5.582;2022-12-18T05:50:37;26.13;;;16.52;;
71236;SDS011;58984;51.960;5.582;2022-12-18T05:53:05;25.80;;;17.15;;
71236;SDS011;58984;51.960;5.582;2022-12-18T05:55:34;28.17;;;17.55;;
71236;SDS011;58984;51.960;5.582;2022-12-18T05:58:01;29.23;;;17.67;;
71236;SDS011;58984;51.960;5.582;2022-12-18T06:00:28;26.88;;;16.88;;
71236;SDS011;58984;51.960;5.582;2022-12-18T06:02:54;30.98;;;17.30;;
71236;SDS011;58984;51.960;5.582;2022-12-18T06:05:20;28.27;;;17.50;;
71236;SDS011;58984;51.960;5.582;2022-12-18T06:07:45;27.27;;;16.77;;
71236;SDS011;58984;51.960;5.582;2022-12-18T06:10:11;29.20;;;16.60;;
71236;SDS011;58984;51.960;5.582;2022-12-18T06:12:36;31.83;;;17.60;;
71236;SDS011;58984;51.960;5.582;2022-12-18T06:15:02;25.95;;;15.82;;
71236;SDS011;58984;51.960;5.582;2022-12-18T06:17:31;30.52;;;16.60;;
71236;SDS011;58984;51.960;5.582;2022-12-18T06:19:59;23.55;;;16.70;;
71236;SDS011;58984;51.960;5.582;2022-12-18T06:22:26;28.17;;;16.08;;
71236;SDS011;58984;51.960;5.582;2022-12-18T06:24:51;24.73;;;15.65;;
71236;SDS011;58984;51.960;5.582;2022-12-18T06:27:17;21.65;;;16.38;;
71236;SDS011;58984;51.960;5.582;2022-12-18T06:29:43;26.58;;;15.63;;
71236;SDS011;58984;51.960;5.582;2022-12-18T06:32:09;23.38;;;15.85;;
71236;SDS011;58984;51.960;5.582;2022-12-18T06:34:34;28.00;;;15.95;;
71236;SDS011;58984;51.960;5.582;2022-12-18T06:37:02;27.00;;;16.20;;
71236;SDS011;58984;51.960;5.582;2022-12-18T06:39:28;25.33;;;15.93;;
71236;SDS011;58984;51.960;5.582;2022-12-18T06:41:54;24.60;;;14.77;;
71236;SDS011;58984;51.960;5.582;2022-12-18T06:44:19;29.52;;;16.73;;
71236;SDS011;58984;51.960;5.582;2022-12-18T06:46:45;27.00;;;15.60;;
71236;SDS011;58984;51.960;5.582;2022-12-18T06:49:11;30.38;;;16.70;;
71236;SDS011;58984;51.960;5.582;2022-12-18T06:51:37;23.15;;;15.48;;
71236;SDS011;58984;51.960;5.582;2022-12-18T06:54:02;19.98;;;14.57;;
71236;SDS011;58984;51.960;5.582;2022-12-18T06:56:28;30.05;;;16.75;;
71236;SDS011;58984;51.960;5.582;2022-12-18T06:58:54;24.80;;;15.93;;
71236;SDS011;58984;51.960;5.582;2022-12-18T07:01:20;24.23;;;15.63;;
71236;SDS011;58984;51.960;5.582;2022-12-18T07:03:46;26.67;;;15.90;;
71236;SDS011;58984;51.960;5.582;2022-12-18T07:06:12;24.77;;;14.52;;
71236;SDS011;58984;51.960;5.582;2022-12-18T07:08:42;27.10;;;16.38;;
71236;SDS011;58984;51.960;5.582;2022-12-18T07:11:08;24.98;;;15.45;;
71236;SDS011;58984;51.960;5.582;2022-12-18T07:13:34;24.52;;;16.02;;
71236;SDS011;58984;51.960;5.582;2022-12-18T07:16:03;21.13;;;15.10;;
71236;SDS011;58984;51.960;5.582;2022-12-18T07:18:33;19.52;;;14.77;;
71236;SDS011;58984;51.960;5.582;2022-12-18T07:21:02;27.08;;;16.23;;
71236;SDS011;58984;51.960;5.582;2022-12-18T07:23:28;25.92;;;15.90;;
71236;SDS011;58984;51.960;5.582;2022-12-18T07:25:54;28.67;;;16.02;;
71236;SDS011;58984;51.960;5.582;2022-12-18T07:28:19;30.00;;;16.42;;
71236;SDS011;58984;51.960;5.582;2022-12-18T07:30:45;25.27;;;15.32;;
71236;SDS011;58984;51.960;5.582;2022-12-18T07:33:10;26.40;;;16.30;;
71236;SDS011;58984;51.960;5.582;2022-12-18T07:35:36;24.40;;;15.65;;
71236;SDS011;58984;51.960;5.582;2022-12-18T07:38:01;30.63;;;15.25;;
71236;SDS011;58984;51.960;5.582;2022-12-18T07:40:27;22.50;;;15.18;;
71236;SDS011;58984;51.960;5.582;2022-12-18T07:42:52;25.73;;;16.33;;
71236;SDS011;58984;51.960;5.582;2022-12-18T07:45:18;25.08;;;16.35;;
71236;SDS011;58984;51.960;5.582;2022-12-18T07:47:43;26.88;;;15.00;;
71236;SDS011;58984;51.960;5.582;2022-12-18T07:50:09;25.75;;;15.75;;
71236;SDS011;58984;51.960;5.582;2022-12-18T07:52:35;27.90;;;15.02;;
71236;SDS011;58984;51.960;5.582;2022-12-18T07:55:01;21.58;;;15.05;;
71236;SDS011;58984;51.960;5.582;2022-12-18T07:57:27;23.70;;;15.32;;
71236;SDS011;58984;51.960;5.582;2022-12-18T07:59:53;23.42;;;15.18;;
71236;SDS011;58984;51.960;5.582;2022-12-18T08:02:18;28.02;;;16.00;;
71236;SDS011;58984;51.960;5.582;2022-12-18T08:04:44;26.08;;;15.45;;
71236;SDS011;58984;51.960;5.582;2022-12-18T08:07:09;23.40;;;14.65;;
71236;SDS011;58984;51.960;5.582;2022-12-18T08:09:35;23.55;;;14.75;;
71236;SDS011;58984;51.960;5.582;2022-12-18T08:12:00;22.55;;;16.25;;
71236;SDS011;58984;51.960;5.582;2022-12-18T08:14:26;26.50;;;15.18;;
71236;SDS011;58984;51.960;5.582;2022-12-18T08:16:51;25.23;;;15.57;;
71236;SDS011;58984;51.960;5.582;2022-12-18T08:19:17;23.63;;;14.73;;
71236;SDS011;58984;51.960;5.582;2022-12-18T08:21:43;20.02;;;14.90;;
71236;SDS011;58984;51.960;5.582;2022-12-18T08:24:08;20.80;;;14.73;;
71236;SDS011;58984;51.960;5.582;2022-12-18T08:26:35;25.33;;;15.18;;
71236;SDS011;58984;51.960;5.582;2022-12-18T08:29:00;23.95;;;15.73;;
71236;SDS011;58984;51.960;5.582;2022-12-18T08:31:26;24.98;;;13.85;;
71236;SDS011;58984;51.960;5.582;2022-12-18T08:33:53;26.40;;;14.82;;
71236;SDS011;58984;51.960;5.582;2022-12-18T08:36:20;24.27;;;15.50;;
71236;SDS011;58984;51.960;5.582;2022-12-18T08:38:46;25.65;;;15.98;;
71236;SDS011;58984;51.960;5.582;2022-12-18T08:41:13;26.42;;;15.32;;
71236;SDS011;58984;51.960;5.582;2022-12-18T08:43:40;22.10;;;14.60;;
71236;SDS011;58984;51.960;5.582;2022-12-18T08:46:26;23.08;;;15.02;;
71236;SDS011;58984;51.960;5.582;2022-12-18T08:48:52;28.13;;;14.70;;
71236;SDS011;58984;51.960;5.582;2022-12-18T08:51:19;26.90;;;16.33;;
71236;SDS011;58984;51.960;5.582;2022-12-18T08:53:45;19.98;;;14.82;;
71236;SDS011;58984;51.960;5.582;2022-12-18T08:56:11;26.85;;;15.50;;
71236;SDS011;58984;51.960;5.582;2022-12-18T08:58:37;22.23;;;16.27;;
71236;SDS011;58984;51.960;5.582;2022-12-18T09:01:03;23.08;;;15.27;;
71236;SDS011;58984;51.960;5.582;2022-12-18T09:03:29;21.60;;;14.60;;
71236;SDS011;58984;51.960;5.582;2022-12-18T09:05:55;20.70;;;14.38;;
71236;SDS011;58984;51.960;5.582;2022-12-18T09:08:21;24.67;;;15.40;;
71236;SDS011;58984;51.960;5.582;2022-12-18T09:10:47;23.10;;;14.25;;
71236;SDS011;58984;51.960;5.582;2022-12-18T09:13:14;22.50;;;14.82;;
71236;SDS011;58984;51.960;5.582;2022-12-18T09:15:44;22.55;;;14.20;;
71236;SDS011;58984;51.960;5.582;2022-12-18T09:18:12;24.17;;;15.63;;
71236;SDS011;58984;51.960;5.582;2022-12-18T09:20:39;26.75;;;14.55;;
71236;SDS011;58984;51.960;5.582;2022-12-18T09:23:05;23.67;;;15.18;;
71236;SDS011;58984;51.960;5.582;2022-12-18T09:25:31;22.45;;;13.27;;
71236;SDS011;58984;51.960;5.582;2022-12-18T09:27:58;21.92;;;14.27;;
71236;SDS011;58984;51.960;5.582;2022-12-18T09:30:25;23.27;;;13.93;;
71236;SDS011;58984;51.960;5.582;2022-12-18T09:32:51;21.35;;;13.48;;
71236;SDS011;58984;51.960;5.582;2022-12-18T09:35:18;20.77;;;14.02;;
71236;SDS011;58984;51.960;5.582;2022-12-18T09:37:43;23.48;;;14.77;;
71236;SDS011;58984;51.960;5.582;2022-12-18T09:40:13;30.00;;;15.05;;
71236;SDS011;58984;51.960;5.582;2022-12-18T09:42:44;20.92;;;14.13;;
71236;SDS011;58984;51.960;5.582;2022-12-18T09:45:15;24.38;;;13.73;;
71236;SDS011;58984;51.960;5.582;2022-12-18T09:47:41;25.80;;;14.57;;
71236;SDS011;58984;51.960;5.582;2022-12-18T09:52:59;22.88;;;14.27;;
71236;SDS011;58984;51.960;5.582;2022-12-18T09:58:01;24.90;;;13.50;;
71236;SDS011;58984;51.960;5.582;2022-12-18T10:00:40;19.38;;;13.20;;
71236;SDS011;58984;51.960;5.582;2022-12-18T10:03:10;22.98;;;14.48;;
71236;SDS011;58984;51.960;5.582;2022-12-18T10:06:02;24.38;;;13.38;;
71236;SDS011;58984;51.960;5.582;2022-12-18T10:14:20;19.88;;;14.05;;
71236;SDS011;58984;51.960;5.582;2022-12-18T10:28:25;22.60;;;13.30;;
71236;SDS011;58984;51.960;5.582;2022-12-18T10:30:54;22.20;;;13.65;;
71236;SDS011;58984;51.960;5.582;2022-12-18T10:33:21;21.48;;;12.98;;
71236;SDS011;58984;51.960;5.582;2022-12-18T10:35:52;19.77;;;14.15;;
71236;SDS011;58984;51.960;5.582;2022-12-18T10:38:25;16.10;;;11.68;;
71236;SDS011;58984;51.960;5.582;2022-12-18T10:41:00;21.35;;;12.88;;
71236;SDS011;58984;51.960;5.582;2022-12-18T10:46:44;22.70;;;13.50;;
71236;SDS011;58984;51.960;5.582;2022-12-18T10:49:32;21.08;;;12.10;;
71236;SDS011;58984;51.960;5.582;2022-12-18T10:52:19;19.75;;;13.30;;
71236;SDS011;58984;51.960;5.582;2022-12-18T10:54:50;24.10;;;13.35;;
71236;SDS011;58984;51.960;5.582;2022-12-18T11:00:21;20.15;;;12.85;;
71236;SDS011;58984;51.960;5.582;2022-12-18T11:02:55;22.48;;;12.48;;
71236;SDS011;58984;51.960;5.582;2022-12-18T11:05:26;19.00;;;12.18;;
71236;SDS011;58984;51.960;5.582;2022-12-18T11:07:56;23.17;;;12.80;;
71236;SDS011;58984;51.960;5.582;2022-12-18T11:10:28;21.52;;;13.38;;
71236;SDS011;58984;51.960;5.582;2022-12-18T11:13:23;18.08;;;12.13;;
71236;SDS011;58984;51.960;5.582;2022-12-18T11:15:54;18.88;;;11.90;;
71236;SDS011;58984;51.960;5.582;2022-12-18T11:18:30;21.48;;;12.32;;
71236;SDS011;58984;51.960;5.582;2022-12-18T11:20:59;21.02;;;12.38;;
71236;SDS011;58984;51.960;5.582;2022-12-18T11:23:25;18.77;;;12.57;;
71236;SDS011;58984;51.960;5.582;2022-12-18T11:25:53;22.92;;;13.00;;
71236;SDS011;58984;51.960;5.582;2022-12-18T11:31:24;24.75;;;13.35;;
71236;SDS011;58984;51.960;5.582;2022-12-18T11:36:20;17.60;;;12.75;;
71236;SDS011;58984;51.960;5.582;2022-12-18T11:38:47;20.35;;;12.52;;
71236;SDS011;58984;51.960;5.582;2022-12-18T11:41:32;24.40;;;13.43;;
71236;SDS011;58984;51.960;5.582;2022-12-18T11:44:35;19.80;;;13.43;;
71236;SDS011;58984;51.960;5.582;2022-12-18T11:49:44;21.58;;;13.02;;
71236;SDS011;58984;51.960;5.582;2022-12-18T11:52:18;18.85;;;12.65;;
71236;SDS011;58984;51.960;5.582;2022-12-18T11:54:50;19.58;;;14.27;;
71236;SDS011;58984;51.960;5.582;2022-12-18T12:09:01;24.67;;;13.13;;
71236;SDS011;58984;51.960;5.582;2022-12-18T12:14:17;22.10;;;14.23;;
71236;SDS011;58984;51.960;5.582;2022-12-18T12:19:57;29.13;;;15.00;;
71236;SDS011;58984;51.960;5.582;2022-12-18T12:30:51;22.40;;;14.05;;
71236;SDS011;58984;51.960;5.582;2022-12-18T12:33:36;20.98;;;14.07;;
71236;SDS011;58984;51.960;5.582;2022-12-18T12:38:54;25.02;;;14.93;;
71236;SDS011;58984;51.960;5.582;2022-12-18T12:41:23;23.30;;;15.02;;
71236;SDS011;58984;51.960;5.582;2022-12-18T12:44:13;24.65;;;13.80;;
71236;SDS011;58984;51.960;5.582;2022-12-18T12:46:43;22.73;;;13.90;;
71236;SDS011;58984;51.960;5.582;2022-12-18T12:49:31;23.40;;;14.02;;
71236;SDS011;58984;51.960;5.582;2022-12-18T12:51:59;26.58;;;14.38;;
71236;SDS011;58984;51.960;5.582;2022-12-18T12:54:48;22.52;;;14.55;;
71236;SDS011;58984;51.960;5.582;2022-12-18T12:57:19;26.05;;;14.50;;
71236;SDS011;58984;51.960;5.582;2022-12-18T13:02:30;21.33;;;13.85;;
71236;SDS011;58984;51.960;5.582;2022-12-18T13:08:11;25.90;;;14.40;;
71236;SDS011;58984;51.960;5.582;2022-12-18T13:10:47;20.13;;;13.95;;
71236;SDS011;58984;51.960;5.582;2022-12-18T13:13:13;21.95;;;15.00;;
71236;SDS011;58984;51.960;5.582;2022-12-18T13:15:47;20.35;;;14.63;;
71236;SDS011;58984;51.960;5.582;2022-12-18T13:18:27;24.35;;;14.75;;
71236;SDS011;58984;51.960;5.582;2022-12-18T13:23:23;19.35;;;13.32;;
71236;SDS011;58984;51.960;5.582;2022-12-18T13:31:11;20.35;;;14.30;;
71236;SDS011;58984;51.960;5.582;2022-12-18T13:34:16;27.95;;;13.80;;
71236;SDS011;58984;51.960;5.582;2022-12-18T13:41:43;25.52;;;15.02;;
71236;SDS011;58984;51.960;5.582;2022-12-18T13:44:23;23.17;;;14.82;;
71236;SDS011;58984;51.960;5.582;2022-12-18T13:46:53;24.30;;;13.25;;
71236;SDS011;58984;51.960;5.582;2022-12-18T13:49:21;20.17;;;14.10;;
71236;SDS011;58984;51.960;5.582;2022-12-18T13:51:54;21.67;;;13.52;;
71236;SDS011;58984;51.960;5.582;2022-12-18T13:59:51;24.55;;;14.95;;
71236;SDS011;58984;51.960;5.582;2022-12-18T14:02:22;22.73;;;14.80;;
71236;SDS011;58984;51.960;5.582;2022-12-18T14:04:50;21.25;;;14.52;;
71236;SDS011;58984;51.960;5.582;2022-12-18T14:07:17;19.70;;;14.43;;
71236;SDS011;58984;51.960;5.582;2022-12-18T14:10:21;19.15;;;13.63;;
71236;SDS011;58984;51.960;5.582;2022-12-18T14:12:44;18.98;;;12.70;;
71236;SDS011;58984;51.960;5.582;2022-12-18T14:17:59;19.23;;;12.65;;
71236;SDS011;58984;51.960;5.582;2022-12-18T14:20:39;24.15;;;13.45;;
71236;SDS011;58984;51.960;5.582;2022-12-18T14:25:54;21.88;;;14.73;;
71236;SDS011;58984;51.960;5.582;2022-12-18T14:28:20;25.85;;;13.75;;
71236;SDS011;58984;51.960;5.582;2022-12-18T14:30:47;24.80;;;14.55;;
71236;SDS011;58984;51.960;5.582;2022-12-18T14:35:54;23.30;;;15.60;;
71236;SDS011;58984;51.960;5.582;2022-12-18T14:40:55;25.83;;;14.73;;
71236;SDS011;58984;51.960;5.582;2022-12-18T14:43:27;32.70;;;15.80;;
71236;SDS011;58984;51.960;5.582;2022-12-18T14:45:54;30.60;;;16.15;;
71236;SDS011;58984;51.960;5.582;2022-12-18T14:51:02;25.63;;;15.60;;
71236;SDS011;58984;51.960;5.582;2022-12-18T14:53:34;29.25;;;16.55;;
71236;SDS011;58984;51.960;5.582;2022-12-18T14:56:22;21.55;;;15.90;;
71236;SDS011;58984;51.960;5.582;2022-12-18T14:58:59;28.85;;;15.80;;
71236;SDS011;58984;51.960;5.582;2022-12-18T15:01:33;28.05;;;16.50;;
71236;SDS011;58984;51.960;5.582;2022-12-18T15:04:02;22.58;;;16.27;;
71236;SDS011;58984;51.960;5.582;2022-12-18T15:06:34;24.17;;;16.33;;
71236;SDS011;58984;51.960;5.582;2022-12-18T15:09:24;22.55;;;15.88;;
71236;SDS011;58984;51.960;5.582;2022-12-18T15:11:54;32.72;;;17.65;;
71236;SDS011;58984;51.960;5.582;2022-12-18T15:17:04;27.48;;;16.45;;
71236;SDS011;58984;51.960;5.582;2022-12-18T15:19:45;27.83;;;17.63;;
71236;SDS011;58984;51.960;5.582;2022-12-18T15:22:16;26.65;;;16.80;;
71236;SDS011;58984;51.960;5.582;2022-12-18T15:24:48;36.95;;;18.73;;
71236;SDS011;58984;51.960;5.582;2022-12-18T15:27:21;29.02;;;18.33;;
71236;SDS011;58984;51.960;5.582;2022-12-18T15:30:15;25.67;;;16.85;;
71236;SDS011;58984;51.960;5.582;2022-12-18T15:32:43;32.05;;;17.65;;
71236;SDS011;58984;51.960;5.582;2022-12-18T15:35:17;29.00;;;17.50;;
71236;SDS011;58984;51.960;5.582;2022-12-18T15:37:48;31.92;;;18.58;;
71236;SDS011;58984;51.960;5.582;2022-12-18T15:40:15;34.50;;;18.23;;
71236;SDS011;58984;51.960;5.582;2022-12-18T15:42:42;32.45;;;19.85;;
71236;SDS011;58984;51.960;5.582;2022-12-18T15:45:27;26.60;;;17.52;;
71236;SDS011;58984;51.960;5.582;2022-12-18T15:47:53;29.92;;;19.48;;
71236;SDS011;58984;51.960;5.582;2022-12-18T15:50:19;31.52;;;18.80;;
71236;SDS011;58984;51.960;5.582;2022-12-18T15:52:45;28.45;;;18.27;;
71236;SDS011;58984;51.960;5.582;2022-12-18T15:55:18;35.80;;;20.27;;
71236;SDS011;58984;51.960;5.582;2022-12-18T15:58:05;28.90;;;17.77;;
71236;SDS011;58984;51.960;5.582;2022-12-18T16:00:36;31.60;;;18.92;;
71236;SDS011;58984;51.960;5.582;2022-12-18T16:03:04;35.20;;;22.55;;
71236;SDS011;58984;51.960;5.582;2022-12-18T16:05:30;39.53;;;21.90;;
71236;SDS011;58984;51.960;5.582;2022-12-18T16:07:56;36.55;;;21.08;;
71236;SDS011;58984;51.960;5.582;2022-12-18T16:10:23;36.60;;;20.95;;
71236;SDS011;58984;51.960;5.582;2022-12-18T16:12:49;38.45;;;21.33;;
71236;SDS011;58984;51.960;5.582;2022-12-18T16:15:15;31.50;;;20.95;;
71236;SDS011;58984;51.960;5.582;2022-12-18T16:17:42;38.38;;;21.02;;
71236;SDS011;58984;51.960;5.582;2022-12-18T16:20:12;33.13;;;21.27;;
71236;SDS011;58984;51.960;5.582;2022-12-18T16:22:40;32.00;;;20.20;;
71236;SDS011;58984;51.960;5.582;2022-12-18T16:25:08;34.47;;;20.75;;
71236;SDS011;58984;51.960;5.582;2022-12-18T16:27:55;31.77;;;20.60;;
71236;SDS011;58984;51.960;5.582;2022-12-18T16:30:22;38.78;;;22.33;;
71236;SDS011;58984;51.960;5.582;2022-12-18T16:32:55;33.22;;;19.50;;
71236;SDS011;58984;51.960;5.582;2022-12-18T16:35:22;42.90;;;21.25;;
71236;SDS011;58984;51.960;5.582;2022-12-18T16:37:48;35.20;;;20.30;;
71236;SDS011;58984;51.960;5.582;2022-12-18T16:40:14;41.65;;;21.33;;
71236;SDS011;58984;51.960;5.582;2022-12-18T16:42:42;35.83;;;21.25;;
71236;SDS011;58984;51.960;5.582;2022-12-18T16:45:13;37.47;;;21.40;;
71236;SDS011;58984;51.960;5.582;2022-12-18T16:47:40;41.42;;;21.77;;
71236;SDS011;58984;51.960;5.582;2022-12-18T16:50:06;36.97;;;21.85;;
71236;SDS011;58984;51.960;5.582;2022-12-18T16:52:34;34.03;;;22.02;;